createdAt,value
2018-05-25T00:01:21.439Z,30.50
2018-05-25T00:03:48.947Z,30.73
2018-05-25T00:06:16.484Z,33.87
2018-05-25T00:08:43.993Z,34.50
2018-05-25T00:11:11.543Z,31.50
2018-05-25T00:13:39.031Z,31.00
2018-05-25T00:16:06.594Z,33.20
2018-05-25T00:18:34.158Z,33.47
2018-05-25T00:21:01.658Z,32.20
2018-05-25T00:23:29.144Z,33.13
2018-05-25T00:25:56.674Z,32.23
2018-05-25T00:28:24.225Z,34.70
2018-05-25T00:30:52.585Z,32.23
2018-05-25T00:33:20.221Z,33.17
2018-05-25T00:35:47.804Z,32.03
2018-05-25T00:38:15.309Z,32.73
2018-05-25T00:40:42.838Z,34.33
2018-05-25T00:43:11.099Z,31.17
2018-05-25T00:45:38.626Z,29.57
2018-05-25T00:48:06.863Z,30.70
2018-05-25T00:50:34.403Z,30.97
2018-05-25T00:53:01.963Z,31.07
2018-05-25T00:55:39.337Z,31.97
2018-05-25T00:58:06.826Z,32.80
2018-05-25T01:00:34.324Z,29.60
2018-05-25T01:03:01.793Z,32.47
2018-05-25T01:05:29.285Z,31.83
2018-05-25T01:07:56.757Z,31.10
2018-05-25T01:10:24.297Z,30.20
2018-05-25T01:13:05.003Z,31.07
2018-05-25T01:15:32.603Z,34.07
2018-05-25T01:18:00.091Z,33.23
2018-05-25T01:20:27.617Z,30.03
2018-05-25T01:22:55.124Z,33.23
2018-05-25T01:25:38.723Z,32.43
2018-05-25T01:28:06.991Z,31.47
2018-05-25T01:30:41.633Z,31.57
2018-05-25T01:33:09.156Z,31.60
2018-05-25T01:47:53.410Z,30.73
2018-05-25T01:50:26.237Z,33.67
2018-05-25T01:52:53.868Z,33.30
2018-05-25T01:55:22.772Z,33.10
2018-05-25T01:57:50.384Z,34.77
2018-05-25T02:00:17.864Z,36.13
2018-05-25T02:02:45.660Z,36.50
2018-05-25T02:05:13.918Z,34.97
2018-05-25T02:07:42.037Z,35.13
2018-05-25T02:10:09.528Z,37.13
2018-05-25T02:12:37.737Z,34.97
2018-05-25T02:15:06.056Z,36.20
2018-05-25T02:17:35.275Z,37.53
2018-05-25T02:20:02.875Z,38.00
2018-05-25T02:22:30.380Z,33.80
2018-05-25T02:28:00.639Z,35.47
2018-05-25T02:30:32.956Z,33.53
2018-05-25T02:33:00.742Z,36.63
2018-05-25T02:35:31.474Z,36.37
2018-05-25T02:37:59.751Z,33.97
2018-05-25T02:40:35.344Z,37.10
2018-05-25T02:43:03.498Z,32.37
2018-05-25T02:45:35.765Z,34.87
2018-05-25T02:48:03.245Z,33.77
2018-05-25T02:50:30.788Z,36.10
2018-05-25T02:52:58.259Z,35.03
2018-05-25T02:55:25.798Z,34.00
2018-05-25T02:57:53.303Z,36.87
2018-05-25T03:00:20.835Z,37.40
2018-05-25T03:02:48.912Z,35.30
2018-05-25T03:05:16.664Z,35.70
2018-05-25T03:07:44.179Z,35.87
2018-05-25T03:10:12.819Z,35.07
2018-05-25T03:12:40.467Z,33.67
2018-05-25T03:15:07.968Z,36.37
2018-05-25T03:17:36.267Z,34.13
2018-05-25T03:20:03.761Z,36.87
2018-05-25T03:22:35.500Z,36.40
2018-05-25T03:25:03.757Z,35.10
2018-05-25T03:27:31.979Z,37.03
2018-05-25T03:29:59.533Z,37.53
2018-05-25T03:32:27.090Z,33.97
2018-05-25T03:34:54.724Z,37.17
2018-05-25T03:37:23.122Z,31.23
2018-05-25T03:39:50.660Z,33.67
2018-05-25T03:42:18.144Z,35.17
2018-05-25T03:44:45.716Z,33.00
2018-05-25T03:47:13.232Z,37.57
2018-05-25T03:49:41.529Z,30.90
2018-05-25T03:52:09.067Z,30.37
2018-05-25T03:54:50.457Z,30.57
2018-05-25T03:57:17.992Z,29.77
2018-05-25T03:59:57.499Z,31.73
2018-05-25T04:02:25.100Z,27.97
2018-05-25T04:04:52.598Z,29.53
2018-05-25T04:07:20.079Z,28.43
2018-05-25T04:09:47.658Z,29.73
2018-05-25T04:12:15.966Z,26.53
2018-05-25T04:14:43.735Z,26.60
2018-05-25T04:17:11.415Z,28.97
2018-05-25T04:19:39.835Z,27.10
2018-05-25T04:22:08.016Z,28.67
2018-05-25T04:24:35.924Z,29.20
2018-05-25T04:27:22.935Z,30.63
2018-05-25T04:29:50.542Z,28.20
2018-05-25T04:32:18.051Z,27.57
2018-05-25T04:34:45.763Z,28.20
2018-05-25T04:37:13.293Z,27.50
2018-05-25T04:39:41.606Z,28.93
2018-05-25T04:42:12.947Z,29.37
2018-05-25T04:44:40.426Z,25.40
2018-05-25T04:47:07.947Z,25.70
2018-05-25T04:49:36.118Z,26.00
2018-05-25T04:52:03.609Z,27.17
2018-05-25T04:54:31.074Z,23.20
2018-05-25T04:56:58.899Z,25.33
2018-05-25T04:59:26.393Z,25.07
2018-05-25T05:01:54.642Z,22.93
2018-05-25T05:04:22.132Z,23.57
2018-05-25T05:06:49.639Z,23.30
2018-05-25T05:09:17.962Z,24.57
2018-05-25T05:11:45.524Z,22.40
2018-05-25T05:14:13.017Z,22.07
2018-05-25T05:16:40.520Z,24.63
2018-05-25T05:19:07.996Z,23.90
2018-05-25T05:21:36.159Z,24.70
2018-05-25T05:24:03.699Z,24.17
2018-05-25T05:26:32.103Z,25.17
2018-05-25T05:28:59.617Z,23.50
2018-05-25T05:31:27.119Z,24.73
2018-05-25T05:33:54.623Z,23.50
2018-05-25T05:36:22.905Z,27.77
2018-05-25T05:38:50.440Z,27.30
2018-05-25T05:41:18.052Z,29.47
2018-05-25T05:43:45.540Z,28.70
2018-05-25T05:46:13.788Z,28.60
2018-05-25T05:48:42.036Z,30.27
2018-05-25T05:51:09.579Z,29.80
2018-05-25T05:53:37.073Z,28.67
2018-05-25T05:56:04.616Z,31.30
2018-05-25T05:58:32.280Z,30.73
2018-05-25T06:00:59.826Z,29.80
2018-05-25T06:03:28.165Z,29.27
2018-05-25T06:05:56.154Z,30.20
2018-05-25T06:08:23.659Z,28.57
2018-05-25T06:10:51.218Z,28.67
2018-05-25T06:13:18.707Z,34.10
2018-05-25T06:15:47.031Z,33.70
2018-05-25T06:18:15.305Z,31.33
2018-05-25T06:20:42.800Z,34.67
2018-05-25T06:23:11.049Z,29.73
2018-05-25T06:25:38.542Z,36.27
2018-05-25T06:28:06.097Z,37.57
2018-05-25T06:30:33.719Z,35.03
2018-05-25T06:33:01.963Z,44.30
2018-05-25T06:35:29.567Z,40.70
2018-05-25T06:37:57.084Z,36.33
2018-05-25T06:40:24.625Z,36.27
2018-05-25T06:42:52.299Z,37.07
2018-05-25T06:45:19.786Z,38.03
2018-05-25T06:47:47.282Z,41.77
2018-05-25T06:50:14.772Z,36.53
2018-05-25T06:52:42.254Z,36.80
2018-05-25T06:55:09.717Z,36.90
2018-05-25T06:57:37.914Z,35.43
2018-05-25T07:00:05.364Z,35.60
2018-05-25T07:02:32.865Z,32.00
2018-05-25T07:05:00.334Z,31.27
2018-05-25T07:07:27.834Z,33.30
2018-05-25T07:09:55.300Z,27.57
2018-05-25T07:12:22.838Z,32.00
2018-05-25T07:14:51.079Z,30.73
2018-05-25T07:17:18.577Z,32.37
2018-05-25T07:19:46.050Z,30.87
2018-05-25T07:22:13.504Z,29.63
2018-05-25T07:24:40.987Z,30.80
2018-05-25T07:27:09.238Z,32.27
2018-05-25T07:29:37.504Z,34.27
2018-05-25T07:32:05.032Z,38.10
2018-05-25T07:34:32.569Z,32.70
2018-05-25T07:37:00.217Z,38.03
2018-05-25T07:39:28.589Z,39.07
2018-05-25T07:41:56.059Z,37.33
2018-05-25T07:44:23.709Z,36.20
2018-05-25T07:46:51.235Z,35.07
2018-05-25T07:49:18.807Z,35.07
2018-05-25T07:51:46.256Z,36.50
2018-05-25T07:54:14.667Z,37.70
2018-05-25T07:56:42.277Z,38.40
2018-05-25T07:59:09.964Z,39.97
2018-05-25T08:01:37.439Z,41.07
2018-05-25T08:04:04.974Z,34.60
2018-05-25T08:06:32.440Z,39.47
2018-05-25T08:09:04.124Z,38.03
2018-05-25T08:11:31.693Z,36.63
2018-05-25T08:13:59.279Z,35.63
2018-05-25T08:16:27.517Z,37.60
2018-05-25T08:18:55.123Z,34.73
2018-05-25T08:21:23.387Z,38.23
2018-05-25T08:33:31.185Z,38.60
2018-05-25T08:35:59.435Z,36.70
2018-05-25T08:38:26.922Z,40.93
2018-05-25T08:40:54.503Z,36.77
2018-05-25T08:43:22.795Z,37.77
2018-05-25T08:45:50.253Z,34.10
2018-05-25T08:48:17.725Z,37.77
2018-05-25T08:50:45.672Z,39.50
2018-05-25T08:53:13.129Z,36.20
2018-05-25T08:55:41.471Z,36.17
2018-05-25T08:58:08.912Z,38.87
2018-05-25T09:00:36.395Z,40.17
2018-05-25T09:03:03.889Z,37.13
2018-05-25T09:05:31.474Z,40.43
2018-05-25T09:07:59.022Z,42.97
2018-05-25T09:10:26.486Z,42.50
2018-05-25T09:12:54.105Z,44.10
2018-05-25T09:15:21.610Z,43.13
2018-05-25T09:17:50.091Z,42.03
2018-05-25T09:20:17.599Z,43.40
2018-05-25T09:22:45.871Z,42.53
2018-05-25T09:25:14.143Z,42.23
2018-05-25T09:27:41.654Z,38.17
2018-05-25T09:30:10.030Z,39.40
2018-05-25T09:32:37.515Z,38.77
2018-05-25T09:35:04.995Z,35.13
2018-05-25T09:37:32.473Z,39.20
2018-05-25T09:40:00.899Z,37.60
2018-05-25T09:42:28.458Z,38.03
2018-05-25T09:44:56.693Z,38.47
2018-05-25T09:47:24.182Z,38.90
2018-05-25T09:49:51.666Z,39.13
2018-05-25T09:52:19.121Z,37.17
2018-05-25T09:54:46.602Z,35.47
2018-05-25T09:57:14.055Z,37.77
2018-05-25T09:59:41.569Z,38.07
2018-05-25T10:02:09.010Z,35.47
2018-05-25T10:04:36.534Z,37.90
2018-05-25T10:07:03.995Z,32.37
2018-05-25T10:09:31.535Z,34.33
2018-05-25T10:11:59.039Z,34.17
2018-05-25T10:14:26.573Z,34.30
2018-05-25T10:16:54.048Z,32.97
2018-05-25T10:19:21.533Z,34.00
2018-05-25T10:21:49.016Z,32.73
2018-05-25T10:24:17.277Z,33.23
2018-05-25T10:26:44.868Z,32.53
2018-05-25T10:29:13.028Z,31.90
2018-05-25T10:31:40.798Z,29.40
2018-05-25T10:34:08.322Z,31.13
2018-05-25T10:36:48.878Z,31.10
2018-05-25T10:39:17.109Z,30.90
2018-05-25T10:41:44.623Z,28.23
2018-05-25T10:44:13.268Z,28.53
2018-05-25T10:46:40.976Z,27.17
2018-05-25T10:49:08.732Z,27.27
2018-05-25T10:51:36.990Z,27.27
2018-05-25T10:54:05.390Z,25.70
2018-05-25T10:56:32.997Z,22.03
2018-05-25T10:59:04.765Z,22.47
2018-05-25T11:01:45.095Z,21.20
2018-05-25T11:04:12.543Z,21.97
2018-05-25T11:06:40.011Z,21.07
2018-05-25T11:09:07.462Z,21.17
2018-05-25T11:11:34.909Z,20.27
2018-05-25T11:14:02.397Z,20.00
2018-05-25T11:16:29.875Z,19.00
2018-05-25T11:18:57.355Z,18.57
2018-05-25T11:21:24.844Z,19.40
2018-05-25T11:23:52.308Z,18.77
2018-05-25T11:26:19.747Z,19.20
2018-05-25T11:28:47.228Z,16.63
2018-05-25T11:31:14.662Z,19.07
2018-05-25T11:33:42.155Z,16.67
2018-05-25T11:36:13.698Z,17.43
2018-05-25T11:38:41.206Z,15.27
2018-05-25T11:41:09.421Z,16.70
2018-05-25T11:43:36.918Z,14.07
2018-05-25T11:46:04.387Z,14.40
2018-05-25T11:48:31.878Z,15.90
2018-05-25T11:50:59.351Z,18.53
2018-05-25T11:53:26.805Z,17.07
2018-05-25T11:55:54.295Z,17.23
2018-05-25T11:58:22.501Z,15.60
2018-05-25T12:00:50.056Z,14.60
2018-05-25T12:03:17.514Z,16.83
2018-05-25T12:05:44.987Z,14.60
2018-05-25T12:08:12.453Z,13.83
2018-05-25T12:10:40.026Z,14.13
2018-05-25T12:13:08.243Z,14.10
2018-05-25T12:15:35.723Z,14.30
2018-05-25T12:18:03.196Z,15.10
2018-05-25T12:20:30.692Z,11.33
2018-05-25T12:22:58.914Z,14.33
2018-05-25T12:25:26.555Z,12.17
2018-05-25T12:27:54.012Z,12.50
2018-05-25T12:30:21.506Z,14.27
2018-05-25T12:32:48.982Z,12.67
2018-05-25T12:35:16.442Z,13.43
2018-05-25T12:37:43.954Z,12.90
2018-05-25T12:40:12.298Z,11.43
2018-05-25T12:42:40.167Z,12.90
2018-05-25T12:45:12.734Z,11.47
2018-05-25T12:47:40.975Z,10.83
2018-05-25T12:50:08.431Z,9.47
2018-05-25T12:52:36.509Z,9.20
2018-05-25T12:55:03.971Z,8.57
2018-05-25T12:57:31.429Z,9.03
2018-05-25T12:59:58.898Z,8.10
2018-05-25T13:02:26.366Z,7.93
2018-05-25T13:04:53.828Z,9.17
2018-05-25T13:07:22.076Z,8.80
2018-05-25T13:09:49.510Z,9.13
2018-05-25T13:12:18.045Z,8.60
2018-05-25T13:14:45.516Z,11.13
2018-05-25T13:17:13.021Z,10.97
2018-05-25T13:19:40.489Z,11.67
2018-05-25T13:22:08.731Z,12.03
2018-05-25T13:24:36.200Z,10.87
2018-05-25T13:27:03.656Z,10.90
2018-05-25T13:29:31.174Z,10.80
2018-05-25T13:31:59.095Z,10.77
2018-05-25T13:34:26.547Z,10.60
2018-05-25T13:36:54.109Z,11.43
2018-05-25T13:39:21.552Z,11.60
2018-05-25T13:41:49.013Z,11.20
2018-05-25T13:44:16.489Z,10.57
2018-05-25T13:46:44.027Z,9.83
2018-05-25T13:49:12.151Z,11.03
2018-05-25T13:51:40.327Z,11.17
2018-05-25T13:54:07.818Z,10.07
2018-05-25T13:56:35.246Z,8.80
2018-05-25T13:59:02.729Z,8.63
2018-05-25T14:01:30.272Z,9.20
2018-05-25T14:03:57.820Z,9.30
2018-05-25T14:06:25.304Z,10.50
2018-05-25T14:11:59.853Z,9.97
2018-05-25T14:14:29.068Z,9.43
2018-05-25T14:17:34.703Z,10.40
2018-05-25T14:20:02.388Z,9.50
2018-05-25T14:22:30.630Z,9.50
2018-05-25T14:24:58.130Z,10.00
2018-05-25T14:27:26.376Z,10.27
2018-05-25T14:29:53.874Z,9.83
2018-05-25T14:32:21.322Z,10.23
2018-05-25T14:34:49.431Z,10.20
2018-05-25T14:37:16.908Z,10.27
2018-05-25T14:39:44.382Z,9.83
2018-05-25T14:42:12.630Z,9.83
2018-05-25T14:44:40.162Z,9.60
2018-05-25T14:47:07.699Z,9.43
2018-05-25T14:49:35.103Z,9.63
2018-05-25T14:52:02.561Z,9.67
2018-05-25T14:54:30.089Z,10.70
2018-05-25T14:56:57.608Z,10.00
2018-05-25T14:59:25.826Z,9.17
2018-05-25T15:01:53.299Z,8.30
2018-05-25T15:04:21.315Z,8.80
2018-05-25T15:06:48.778Z,8.07
2018-05-25T15:09:16.246Z,8.53
2018-05-25T15:11:43.730Z,9.00
2018-05-25T15:14:11.166Z,8.73
2018-05-25T15:16:38.638Z,9.10
2018-05-25T15:19:06.166Z,10.10
2018-05-25T15:21:33.667Z,9.23
2018-05-25T15:24:01.143Z,8.60
2018-05-25T15:26:28.583Z,7.30
2018-05-25T15:28:56.085Z,8.30
2018-05-25T15:31:23.563Z,8.43
2018-05-25T15:33:51.047Z,7.67
2018-05-25T15:36:18.535Z,7.70
2018-05-25T15:38:45.960Z,8.57
2018-05-25T15:41:13.432Z,8.53
2018-05-25T15:43:40.918Z,8.17
2018-05-25T15:46:09.811Z,7.23
2018-05-25T15:48:37.315Z,7.90
2018-05-25T15:51:04.778Z,7.33
2018-05-25T15:53:32.261Z,7.60
2018-05-25T15:55:59.691Z,7.77
2018-05-25T15:58:27.181Z,7.40
2018-05-25T16:00:55.409Z,7.20
2018-05-25T16:03:22.883Z,7.70
2018-05-25T16:05:50.343Z,7.10
2018-05-25T16:08:17.850Z,7.20
2018-05-25T16:10:45.276Z,7.47
2018-05-25T16:13:12.745Z,7.60
2018-05-25T16:15:40.213Z,10.00
2018-05-25T16:18:07.762Z,8.50
2018-05-25T16:20:35.213Z,8.53
2018-05-25T16:23:02.696Z,12.10
2018-05-25T16:25:30.167Z,9.60
2018-05-25T16:27:57.640Z,9.10
2018-05-25T16:30:25.978Z,8.40
2018-05-25T16:32:53.457Z,7.83
2018-05-25T16:35:21.018Z,8.17
2018-05-25T16:37:48.490Z,6.90
2018-05-25T16:40:15.993Z,6.60
2018-05-25T16:42:43.417Z,14.27
2018-05-25T16:45:11.671Z,10.03
2018-05-25T16:47:39.126Z,8.37
2018-05-25T16:50:06.633Z,8.50
2018-05-25T16:52:34.102Z,6.80
2018-05-25T16:55:01.635Z,7.80
2018-05-25T16:57:30.496Z,8.33
2018-05-25T16:59:57.951Z,8.27
2018-05-25T17:02:25.447Z,6.07
2018-05-25T17:04:52.898Z,11.67
2018-05-25T17:07:20.371Z,6.57
2018-05-25T17:09:47.874Z,6.13
2018-05-25T17:12:15.359Z,6.93
2018-05-25T17:14:43.610Z,6.47
2018-05-25T17:17:11.059Z,7.67
2018-05-25T17:19:38.573Z,5.93
2018-05-25T17:22:06.057Z,5.60
2018-05-25T17:24:34.336Z,6.57
2018-05-25T17:27:09.441Z,7.90
2018-05-25T17:42:37.813Z,5.30
2018-05-25T17:45:11.560Z,5.70
2018-05-25T17:47:39.030Z,5.40
2018-05-25T17:50:23.522Z,5.23
2018-05-25T17:52:51.193Z,5.87
2018-05-25T17:55:22.990Z,5.53
2018-05-25T17:57:51.239Z,6.07
2018-05-25T18:00:18.707Z,5.80
2018-05-25T18:02:46.166Z,5.87
2018-05-25T18:05:14.451Z,5.70
2018-05-25T18:07:43.866Z,7.10
2018-05-25T18:10:11.347Z,7.30
2018-05-25T18:12:38.834Z,6.23
2018-05-25T18:15:06.379Z,7.23
2018-05-25T18:17:37.300Z,6.57
2018-05-25T18:20:04.772Z,6.80
2018-05-25T18:22:32.283Z,6.43
2018-05-25T18:25:00.506Z,7.23
2018-05-25T18:27:28.116Z,11.50
2018-05-25T18:29:56.869Z,7.80
2018-05-25T18:32:24.340Z,15.90
2018-05-25T18:34:53.909Z,14.27
2018-05-25T18:37:21.862Z,12.77
2018-05-25T18:39:49.319Z,12.33
2018-05-25T18:42:16.799Z,10.27
2018-05-25T18:44:44.271Z,10.57
2018-05-25T18:47:12.189Z,10.27
2018-05-25T18:49:39.667Z,10.10
2018-05-25T18:52:07.120Z,13.73
2018-05-25T18:54:34.623Z,10.23
2018-05-25T18:57:02.062Z,8.13
2018-05-25T18:59:30.300Z,8.67
2018-05-25T19:01:58.510Z,8.30
2018-05-25T19:04:26.763Z,9.43
2018-05-25T19:06:54.246Z,7.70
2018-05-25T19:09:22.600Z,8.23
2018-05-25T19:12:10.261Z,8.23
2018-05-25T19:24:31.227Z,8.93
2018-05-25T19:26:59.063Z,9.13
2018-05-25T19:29:31.009Z,8.87
2018-05-25T19:32:02.875Z,9.77
2018-05-25T19:34:31.159Z,12.07
2018-05-25T19:37:08.547Z,11.03
2018-05-25T19:39:36.451Z,8.80
2018-05-25T19:42:04.872Z,9.10
2018-05-25T19:44:35.360Z,9.40
2018-05-25T19:47:06.776Z,7.73
2018-05-25T19:49:34.377Z,9.07
2018-05-25T19:52:01.856Z,9.07
2018-05-25T19:54:29.371Z,7.23
2018-05-25T19:56:57.743Z,7.70
2018-05-25T19:59:27.039Z,8.23
2018-05-25T20:01:55.246Z,8.43
2018-05-25T20:04:22.826Z,6.43
2018-05-25T20:06:50.346Z,7.60
2018-05-25T20:09:19.205Z,7.53
2018-05-25T20:11:46.786Z,8.43
2018-05-25T20:14:15.279Z,9.43
2018-05-25T20:16:47.434Z,8.60
2018-05-25T20:32:10.094Z,9.47
2018-05-25T20:34:37.593Z,11.33
2018-05-25T20:37:06.285Z,8.70
2018-05-25T20:39:34.581Z,9.53
2018-05-25T20:42:02.999Z,10.07
2018-05-25T20:44:36.530Z,8.83
2018-05-25T20:47:04.127Z,10.53
2018-05-25T20:49:32.439Z,8.10
2018-05-25T20:52:01.015Z,9.63
2018-05-25T20:54:28.523Z,9.80
2018-05-25T20:56:56.881Z,9.77
2018-05-25T20:59:24.355Z,10.00
2018-05-25T21:01:51.823Z,9.03
2018-05-25T21:04:19.275Z,10.40
2018-05-25T21:06:46.780Z,10.83
2018-05-25T21:09:14.243Z,10.47
2018-05-25T21:11:41.773Z,11.40
2018-05-25T21:14:09.262Z,12.50
2018-05-25T21:16:36.736Z,11.53
2018-05-25T21:19:04.983Z,11.17
2018-05-25T21:21:32.447Z,11.40
2018-05-25T21:24:00.196Z,9.77
2018-05-25T21:36:13.794Z,10.20
2018-05-25T21:38:46.971Z,11.60
2018-05-25T21:41:18.667Z,8.97
2018-05-25T21:43:47.688Z,9.80
2018-05-25T21:46:16.210Z,8.90
2018-05-25T21:48:47.672Z,11.73
2018-05-25T21:51:15.561Z,9.27
2018-05-25T21:53:53.788Z,8.73
2018-05-25T21:56:23.773Z,8.53
2018-05-25T21:58:52.753Z,9.20
2018-05-25T22:01:33.543Z,9.53
2018-05-25T22:04:03.998Z,9.03
2018-05-25T22:06:33.807Z,9.27
2018-05-25T22:09:02.122Z,9.33
2018-05-25T22:11:29.976Z,9.20
2018-05-25T22:13:59.116Z,9.23
2018-05-25T22:16:31.299Z,8.83
2018-05-25T22:18:59.681Z,9.00
2018-05-25T22:21:31.452Z,9.17
2018-05-25T22:23:59.228Z,9.77
2018-05-25T22:26:27.039Z,8.83
2018-05-25T22:28:58.507Z,9.13
2018-05-25T22:31:27.298Z,9.13
2018-05-25T22:33:55.172Z,9.97
2018-05-25T22:36:24.404Z,10.07
2018-05-25T22:38:52.074Z,9.40
2018-05-25T22:41:19.854Z,8.17
2018-05-25T22:43:59.496Z,9.90
2018-05-25T22:46:42.547Z,9.30
2018-05-25T22:49:22.881Z,9.40
2018-05-25T22:52:02.449Z,9.63
2018-05-25T22:54:37.865Z,9.40
2018-05-25T22:57:07.262Z,9.57
2018-05-25T22:59:36.175Z,8.80
2018-05-25T23:02:05.159Z,10.30
2018-05-25T23:04:34.451Z,9.30
2018-05-25T23:07:06.558Z,9.43
2018-05-25T23:09:35.226Z,9.13
2018-05-25T23:12:08.181Z,8.67
2018-05-25T23:27:30.903Z,9.40
2018-05-25T23:30:02.753Z,9.67
2018-05-25T23:42:16.120Z,9.97
2018-05-25T23:44:50.328Z,9.47
2018-05-25T23:47:21.181Z,9.00
2018-05-25T23:49:50.465Z,9.70
2018-05-25T23:52:20.223Z,10.03
2018-05-25T23:54:56.951Z,9.80
2018-05-25T23:57:28.238Z,10.27
